Time;durP1;ratioP1;P1;durP2;ratioP2;P2;SDS_P1;SDS_P2;PMS_P1;PMS_P2;Temp;Humidity;BMP_temperature;BMP_pressure;BME280_temperature;BME280_humidity;BME280_pressure;Samples;Min_cycle;Max_cycle;Signal;HPM_P1;HPM_P2
2021/06/24 00:00:08;;;;;;;11.68;9.43;;;;;;;;;;5009035;28;20049;-65
2021/06/24 00:02:53;;;;;;;14.65;9.98;;;;;;;;;;5014818;28;20123;-66
2021/06/24 00:05:39;;;;;;;11.98;8.50;;;;;;;;;;5014835;28;20054;-65
2021/06/24 00:08:24;;;;;;;16.45;10.07;;;;;;;;;;5014628;28;20050;-66
2021/06/24 00:11:10;;;;;;;15.60;10.45;;;;;;;;;;5011382;28;20076;-66
2021/06/24 00:13:55;;;;;;;10.35;9.15;;;;;;;;;;5009674;28;20049;-65
2021/06/24 00:16:40;;;;;;;11.02;8.70;;;;;;;;;;5013661;28;20050;-65
2021/06/24 00:19:26;;;;;;;13.50;10.15;;;;;;;;;;5014207;28;20052;-66
2021/06/24 00:22:11;;;;;;;14.52;10.00;;;;;;;;;;5014133;28;20056;-65
2021/06/24 00:24:57;;;;;;;13.23;9.52;;;;;;;;;;5014304;28;20050;-65
2021/06/24 00:27:43;;;;;;;11.32;9.25;;;;;;;;;;5014276;28;20050;-65
2021/06/24 00:30:28;;;;;;;9.35;8.45;;;;;;;;;;4981186;28;20056;-65
2021/06/24 00:33:13;;;;;;;11.25;8.75;;;;;;;;;;5013717;28;20046;-65
2021/06/24 00:35:58;;;;;;;15.40;11.23;;;;;;;;;;5014005;28;20046;-65
2021/06/24 00:38:44;;;;;;;16.25;11.55;;;;;;;;;;5014229;28;20072;-65
2021/06/24 00:41:29;;;;;;;17.60;12.52;;;;;;;;;;5012417;28;20504;-65
2021/06/24 00:44:15;;;;;;;16.25;12.30;;;;;;;;;;4998215;28;20057;-65
2021/06/24 00:47:01;;;;;;;14.02;11.07;;;;;;;;;;5014182;28;20041;-65
2021/06/24 00:49:46;;;;;;;15.35;11.77;;;;;;;;;;5013816;28;20050;-65
2021/06/24 00:52:31;;;;;;;16.63;12.48;;;;;;;;;;5010576;28;20053;-65
2021/06/24 00:55:17;;;;;;;18.95;13.00;;;;;;;;;;5013400;28;20046;-65
2021/06/24 00:58:02;;;;;;;19.60;13.63;;;;;;;;;;5013680;28;20104;-65
2021/06/24 01:00:50;;;;;;;19.98;13.77;;;;;;;;;;4998733;28;20096;-65
2021/06/24 01:03:36;;;;;;;18.90;12.85;;;;;;;;;;5007350;28;20064;-65
2021/06/24 01:06:21;;;;;;;15.43;12.60;;;;;;;;;;4998771;28;20520;-65
2021/06/24 01:09:07;;;;;;;13.02;11.63;;;;;;;;;;5013533;28;20408;-65
2021/06/24 01:11:54;;;;;;;20.75;13.00;;;;;;;;;;4996789;28;20034;-65
2021/06/24 01:14:39;;;;;;;14.20;10.88;;;;;;;;;;5012143;28;20052;-65
2021/06/24 01:17:24;;;;;;;17.58;11.77;;;;;;;;;;5013189;28;20154;-65
2021/06/24 01:20:10;;;;;;;14.30;12.40;;;;;;;;;;4998059;28;20066;-65
2021/06/24 01:22:56;;;;;;;15.57;12.15;;;;;;;;;;5003333;28;20057;-65
2021/06/24 01:25:42;;;;;;;18.23;11.75;;;;;;;;;;4979229;28;20061;-65
2021/06/24 01:28:27;;;;;;;15.48;10.43;;;;;;;;;;4993479;28;20120;-65
2021/06/24 01:31:14;;;;;;;15.40;10.30;;;;;;;;;;4978917;28;20539;-65
2021/06/24 01:33:59;;;;;;;15.95;12.00;;;;;;;;;;5006465;28;20053;-65
2021/06/24 01:36:45;;;;;;;17.08;12.77;;;;;;;;;;4998234;28;20124;-65
2021/06/24 01:39:31;;;;;;;17.80;12.40;;;;;;;;;;4998173;28;20416;-66
2021/06/24 01:42:17;;;;;;;16.38;11.70;;;;;;;;;;5013092;28;20081;-65
2021/06/24 01:45:02;;;;;;;14.65;11.32;;;;;;;;;;4973890;28;20051;-65
2021/06/24 01:47:48;;;;;;;18.20;12.27;;;;;;;;;;4959405;28;20061;-65
2021/06/24 01:50:34;;;;;;;24.65;15.13;;;;;;;;;;4959076;28;20475;-65
2021/06/24 01:53:19;;;;;;;27.15;17.38;;;;;;;;;;4975866;28;20050;-65
2021/06/24 01:56:04;;;;;;;24.98;17.58;;;;;;;;;;4977708;28;20514;-65
2021/06/24 01:58:52;;;;;;;22.45;16.38;;;;;;;;;;4992977;28;20054;-65
2021/06/24 02:01:47;;;;;;;20.70;15.32;;;;;;;;;;4978389;28;20050;-65
2021/06/24 02:04:44;;;;;;;18.42;15.02;;;;;;;;;;5001945;28;20049;-65
2021/06/24 02:07:30;;;;;;;21.65;15.32;;;;;;;;;;4997331;28;20517;-64
2021/06/24 02:10:36;;;;;;;23.02;15.18;;;;;;;;;;5012427;28;20042;-64
2021/06/24 02:13:22;;;;;;;21.88;16.52;;;;;;;;;;4997685;28;20407;-65
2021/06/24 02:16:08;;;;;;;19.65;15.65;;;;;;;;;;4981911;28;20100;-64
2021/06/24 02:18:54;;;;;;;23.83;14.52;;;;;;;;;;5011368;28;20479;-64
2021/06/24 02:21:56;;;;;;;21.65;15.30;;;;;;;;;;4997469;28;20121;-64
2021/06/24 02:24:41;;;;;;;21.65;14.75;;;;;;;;;;5010453;28;20392;-64
2021/06/24 02:27:30;;;;;;;18.92;14.18;;;;;;;;;;5012450;28;20132;-64
2021/06/24 02:30:46;;;;;;;23.30;15.90;;;;;;;;;;4997123;28;20046;-64
2021/06/24 02:33:33;;;;;;;18.27;15.07;;;;;;;;;;5012386;28;20085;-64
2021/06/24 02:36:32;;;;;;;19.00;14.63;;;;;;;;;;5010477;28;20078;-65
2021/06/24 02:39:20;;;;;;;19.90;15.95;;;;;;;;;;4997354;28;20046;-64
2021/06/24 02:42:06;;;;;;;17.52;12.98;;;;;;;;;;5012258;28;20496;-65
2021/06/24 02:44:55;;;;;;;15.93;13.73;;;;;;;;;;4995669;28;20046;-65
2021/06/24 02:47:41;;;;;;;19.17;15.75;;;;;;;;;;5011887;28;20531;-64
2021/06/24 02:50:27;;;;;;;22.80;16.10;;;;;;;;;;4997115;28;20077;-65
2021/06/24 02:53:18;;;;;;;18.45;14.60;;;;;;;;;;4997137;28;20671;-65
2021/06/24 02:56:05;;;;;;;20.95;14.98;;;;;;;;;;4995470;28;20046;-64
2021/06/24 02:58:59;;;;;;;23.15;16.02;;;;;;;;;;4996089;28;20096;-65
2021/06/24 03:01:51;;;;;;;24.90;16.50;;;;;;;;;;4997086;28;20045;-64
2021/06/24 03:04:45;;;;;;;23.05;16.25;;;;;;;;;;5010892;28;20532;-65
2021/06/24 03:07:31;;;;;;;22.52;17.75;;;;;;;;;;5009298;28;20135;-64
2021/06/24 03:10:49;;;;;;;20.17;16.10;;;;;;;;;;5011910;28;20141;-64
2021/06/24 03:13:34;;;;;;;19.65;14.95;;;;;;;;;;5011802;28;20546;-65
2021/06/24 03:16:20;;;;;;;18.40;14.30;;;;;;;;;;5010071;28;20046;-64
2021/06/24 03:19:06;;;;;;;22.33;15.25;;;;;;;;;;4996878;28;20054;-64
2021/06/24 03:21:52;;;;;;;20.00;15.38;;;;;;;;;;4997232;28;20057;-65
2021/06/24 03:24:38;;;;;;;22.23;15.27;;;;;;;;;;4981780;28;20108;-65
2021/06/24 03:27:26;;;;;;;19.40;16.02;;;;;;;;;;4985603;28;20136;-66
2021/06/24 03:30:31;;;;;;;22.73;15.63;;;;;;;;;;5011698;28;20090;-65
2021/06/24 03:33:17;;;;;;;16.40;14.63;;;;;;;;;;4996851;28;20042;-65
2021/06/24 03:36:02;;;;;;;19.42;15.57;;;;;;;;;;5011916;28;20057;-65
2021/06/24 03:38:48;;;;;;;22.38;16.88;;;;;;;;;;4992112;28;20050;-65
2021/06/24 03:41:39;;;;;;;25.55;17.17;;;;;;;;;;5012415;28;20045;-65
2021/06/24 03:44:25;;;;;;;22.38;17.17;;;;;;;;;;5000560;28;20062;-65
2021/06/24 03:47:11;;;;;;;22.45;17.92;;;;;;;;;;5013653;28;20050;-65
2021/06/24 03:49:56;;;;;;;27.75;18.23;;;;;;;;;;5010735;28;20601;-65
2021/06/24 03:52:43;;;;;;;28.73;18.20;;;;;;;;;;4980798;28;20046;-65
2021/06/24 03:55:43;;;;;;;28.10;18.45;;;;;;;;;;4996345;28;20497;-65
2021/06/24 03:58:46;;;;;;;27.63;18.08;;;;;;;;;;4990877;28;20072;-65
2021/06/24 04:01:33;;;;;;;25.58;17.77;;;;;;;;;;5002277;23;20049;-64
2021/06/24 04:04:18;;;;;;;19.33;16.92;;;;;;;;;;4975801;28;20051;-64
2021/06/24 04:07:08;;;;;;;22.00;16.00;;;;;;;;;;4960774;28;20053;-65
2021/06/24 04:09:54;;;;;;;17.52;15.30;;;;;;;;;;4959818;28;20043;-65
2021/06/24 04:12:40;;;;;;;23.77;17.83;;;;;;;;;;4980415;28;20053;-66
2021/06/24 04:15:44;;;;;;;18.27;16.27;;;;;;;;;;4994473;28;20495;-66
2021/06/24 04:18:31;;;;;;;21.20;17.05;;;;;;;;;;4994158;28;20420;-66
2021/06/24 04:21:17;;;;;;;18.52;15.02;;;;;;;;;;4979865;28;20065;-65
2021/06/24 04:24:02;;;;;;;19.75;16.23;;;;;;;;;;4980147;28;20625;-66
2021/06/24 04:26:48;;;;;;;17.95;15.25;;;;;;;;;;4980461;28;20078;-66
2021/06/24 04:29:38;;;;;;;24.60;15.85;;;;;;;;;;4993532;28;20133;-66
2021/06/24 04:32:24;;;;;;;17.50;15.23;;;;;;;;;;4993888;28;20573;-66
2021/06/24 04:35:09;;;;;;;18.38;14.52;;;;;;;;;;4994136;28;20050;-65
2021/06/24 04:37:55;;;;;;;17.92;16.10;;;;;;;;;;4984177;28;20047;-67
2021/06/24 04:40:40;;;;;;;19.83;16.10;;;;;;;;;;4984713;28;20409;-66
2021/06/24 04:43:26;;;;;;;17.40;15.27;;;;;;;;;;4984917;28;20061;-66
2021/06/24 04:46:11;;;;;;;17.50;15.65;;;;;;;;;;4985252;28;20038;-65
2021/06/24 04:48:56;;;;;;;17.42;15.23;;;;;;;;;;4984041;28;20133;-66
2021/06/24 04:52:01;;;;;;;18.23;15.20;;;;;;;;;;4994325;28;20535;-66
2021/06/24 04:54:56;;;;;;;17.23;15.52;;;;;;;;;;4980042;28;20053;-66
2021/06/24 04:57:42;;;;;;;17.42;15.05;;;;;;;;;;4994338;28;20096;-65
2021/06/24 05:00:46;;;;;;;16.25;14.27;;;;;;;;;;4992615;28;20100;-66
2021/06/24 05:03:40;;;;;;;15.52;13.95;;;;;;;;;;4993054;28;20519;-66
2021/06/24 05:06:26;;;;;;;18.70;15.90;;;;;;;;;;4994161;28;20185;-65
2021/06/24 05:09:11;;;;;;;19.30;15.00;;;;;;;;;;4993994;28;20678;-66
2021/06/24 05:11:57;;;;;;;16.58;13.75;;;;;;;;;;4977486;28;20572;-65
2021/06/24 05:14:42;;;;;;;15.82;14.15;;;;;;;;;;4974279;28;20075;-65
2021/06/24 05:17:28;;;;;;;15.65;14.07;;;;;;;;;;4973405;28;20107;-64
2021/06/24 05:20:14;;;;;;;17.58;13.98;;;;;;;;;;4977853;28;20551;-64
2021/06/24 05:23:00;;;;;;;16.63;13.38;;;;;;;;;;4973919;28;20047;-65
2021/06/24 05:25:46;;;;;;;15.30;13.70;;;;;;;;;;4974310;28;20146;-65
2021/06/24 05:28:32;;;;;;;17.98;13.93;;;;;;;;;;4974413;28;20057;-65
2021/06/24 05:31:17;;;;;;;16.42;14.65;;;;;;;;;;4977941;28;20058;-64
2021/06/24 05:34:06;;;;;;;10.77;9.68;;;;;;;;;;4992099;28;20042;-66
2021/06/24 05:36:52;;;;;;;14.88;12.10;;;;;;;;;;4993550;28;20046;-65
2021/06/24 05:39:37;;;;;;;13.15;11.80;;;;;;;;;;4987416;28;20046;-65
2021/06/24 05:42:22;;;;;;;11.50;10.27;;;;;;;;;;4992199;28;20397;-66
2021/06/24 05:45:08;;;;;;;11.40;9.48;;;;;;;;;;4993616;28;20133;-65
2021/06/24 05:47:53;;;;;;;12.73;10.20;;;;;;;;;;4992618;28;20054;-64
2021/06/24 05:50:40;;;;;;;13.95;9.70;;;;;;;;;;4991907;28;20047;-65
2021/06/24 05:53:25;;;;;;;10.75;8.48;;;;;;;;;;4993439;28;20189;-65
2021/06/24 05:56:10;;;;;;;9.00;8.10;;;;;;;;;;4993435;28;20046;-64
2021/06/24 05:58:56;;;;;;;8.70;7.80;;;;;;;;;;4992127;28;20039;-65
2021/06/24 06:01:47;;;;;;;10.23;7.65;;;;;;;;;;4987161;28;20104;-65
2021/06/24 06:04:33;;;;;;;9.85;7.00;;;;;;;;;;4992615;28;20556;-64
2021/06/24 06:07:18;;;;;;;8.90;7.65;;;;;;;;;;4993015;28;20047;-65
2021/06/24 06:10:04;;;;;;;10.73;7.55;;;;;;;;;;4979797;28;20058;-64
2021/06/24 06:12:49;;;;;;;8.88;7.97;;;;;;;;;;4973491;28;20098;-71
2021/06/24 06:15:35;;;;;;;10.73;8.50;;;;;;;;;;4973482;28;20046;-64
2021/06/24 06:18:21;;;;;;;10.50;7.63;;;;;;;;;;4958683;28;20054;-64
2021/06/24 06:21:06;;;;;;;9.10;7.75;;;;;;;;;;4990684;28;20058;-64
2021/06/24 06:23:52;;;;;;;8.95;7.65;;;;;;;;;;4992538;28;20401;-64
2021/06/24 06:26:37;;;;;;;6.47;5.95;;;;;;;;;;4992728;28;20057;-64
2021/06/24 06:29:23;;;;;;;7.80;6.35;;;;;;;;;;4991141;28;20053;-64
2021/06/24 06:32:08;;;;;;;6.63;6.03;;;;;;;;;;4971808;28;20042;-64
2021/06/24 06:34:54;;;;;;;8.40;5.50;;;;;;;;;;4973341;28;20065;-64
2021/06/24 06:37:40;;;;;;;7.97;5.10;;;;;;;;;;4973258;28;20055;-64
2021/06/24 06:40:25;;;;;;;5.95;5.35;;;;;;;;;;4978583;28;20054;-64
2021/06/24 06:43:12;;;;;;;7.38;4.57;;;;;;;;;;4991110;28;20050;-64
2021/06/24 06:45:57;;;;;;;7.18;5.07;;;;;;;;;;4992522;28;20057;-63
2021/06/24 06:48:43;;;;;;;7.22;4.82;;;;;;;;;;4992586;28;20054;-64
2021/06/24 06:51:28;;;;;;;7.93;6.38;;;;;;;;;;4975309;28;20050;-64
2021/06/24 06:54:14;;;;;;;7.25;5.65;;;;;;;;;;4991907;28;20046;-64
2021/06/24 06:56:59;;;;;;;7.15;5.82;;;;;;;;;;4992543;28;20051;-64
2021/06/24 06:59:44;;;;;;;7.00;5.32;;;;;;;;;;4992090;28;20155;-64
2021/06/24 07:02:30;;;;;;;7.65;5.75;;;;;;;;;;4990914;28;20042;-64
2021/06/24 07:05:15;;;;;;;7.70;5.15;;;;;;;;;;4992084;28;20051;-64
2021/06/24 07:08:00;;;;;;;5.38;4.90;;;;;;;;;;4992327;28;20055;-64
2021/06/24 07:10:46;;;;;;;5.28;4.45;;;;;;;;;;4990951;28;20536;-64
2021/06/24 07:13:31;;;;;;;7.68;4.47;;;;;;;;;;4992448;28;20058;-64
2021/06/24 07:16:17;;;;;;;5.90;4.78;;;;;;;;;;4992671;28;20559;-64
2021/06/24 07:19:02;;;;;;;5.43;3.72;;;;;;;;;;4996077;28;20133;-64
2021/06/24 07:21:47;;;;;;;6.30;4.35;;;;;;;;;;4994517;28;20060;-64
2021/06/24 07:24:33;;;;;;;4.68;3.28;;;;;;;;;;4995036;28;20513;-64
2021/06/24 07:27:18;;;;;;;6.40;3.80;;;;;;;;;;4996055;28;20046;-64
2021/06/24 07:30:04;;;;;;;5.60;3.70;;;;;;;;;;4995549;28;20072;-64
2021/06/24 07:32:50;;;;;;;4.78;4.00;;;;;;;;;;4994184;28;20054;-64
2021/06/24 07:35:37;;;;;;;5.00;3.67;;;;;;;;;;4994997;28;20054;-63
2021/06/24 07:38:22;;;;;;;5.55;3.47;;;;;;;;;;4995602;28;20073;-65
2021/06/24 07:41:07;;;;;;;4.97;3.58;;;;;;;;;;4995364;28;20179;-64
2021/06/24 07:43:53;;;;;;;8.75;3.25;;;;;;;;;;4994248;28;20054;-64
2021/06/24 07:46:38;;;;;;;6.30;3.47;;;;;;;;;;4995449;28;20046;-64
2021/06/24 07:49:24;;;;;;;7.40;3.47;;;;;;;;;;4995369;28;20072;-64
2021/06/24 07:52:09;;;;;;;6.57;4.10;;;;;;;;;;4995594;28;20058;-64
2021/06/24 07:54:55;;;;;;;5.63;4.22;;;;;;;;;;4975792;28;20051;-63
2021/06/24 07:57:43;;;;;;;5.47;4.13;;;;;;;;;;4975933;28;20043;-64
2021/06/24 08:00:28;;;;;;;4.88;3.95;;;;;;;;;;4975858;28;20050;-64
2021/06/24 08:03:13;;;;;;;5.15;4.45;;;;;;;;;;4980415;28;20094;-64
2021/06/24 08:05:59;;;;;;;7.03;4.45;;;;;;;;;;4993953;28;20441;-64
2021/06/24 08:08:44;;;;;;;7.28;5.28;;;;;;;;;;4995008;28;20044;-64
2021/06/24 08:11:30;;;;;;;8.05;4.45;;;;;;;;;;4994691;28;20508;-64
2021/06/24 08:14:16;;;;;;;5.43;4.00;;;;;;;;;;4993821;28;20128;-63
2021/06/24 08:17:01;;;;;;;5.20;4.40;;;;;;;;;;4994337;28;20500;-64
2021/06/24 08:19:46;;;;;;;4.20;3.80;;;;;;;;;;4994817;28;20057;-64
2021/06/24 08:22:32;;;;;;;6.22;3.78;;;;;;;;;;4994856;28;20054;-64
2021/06/24 08:25:17;;;;;;;6.20;3.40;;;;;;;;;;4993186;28;20437;-64
2021/06/24 08:28:03;;;;;;;6.10;3.50;;;;;;;;;;4993965;28;20500;-64
2021/06/24 08:30:48;;;;;;;6.40;3.55;;;;;;;;;;4994426;28;20389;-64
2021/06/24 08:33:34;;;;;;;4.60;3.25;;;;;;;;;;4994952;28;20187;-64
2021/06/24 08:36:21;;;;;;;5.82;3.33;;;;;;;;;;4993367;28;20412;-64
2021/06/24 08:39:06;;;;;;;6.22;3.28;;;;;;;;;;4994680;28;20060;-64
2021/06/24 08:41:51;;;;;;;4.93;3.03;;;;;;;;;;4994381;28;20053;-64
2021/06/24 08:44:37;;;;;;;5.57;2.90;;;;;;;;;;4993611;28;20403;-64
2021/06/24 08:47:23;;;;;;;3.72;3.42;;;;;;;;;;4994432;28;20085;-64
2021/06/24 08:50:09;;;;;;;6.82;3.50;;;;;;;;;;4979681;28;20448;-64
2021/06/24 08:52:55;;;;;;;4.25;3.28;;;;;;;;;;4994394;28;20046;-64
2021/06/24 08:55:41;;;;;;;3.67;2.95;;;;;;;;;;4993276;28;20134;-64
2021/06/24 08:58:26;;;;;;;2.92;2.63;;;;;;;;;;4994172;28;20049;-64
2021/06/24 09:01:12;;;;;;;4.07;2.20;;;;;;;;;;4993841;28;20076;-64
2021/06/24 09:04:13;;;;;;;8.13;3.78;;;;;;;;;;4994112;28;20428;-64
2021/06/24 09:07:16;;;;;;;3.08;2.50;;;;;;;;;;4992121;28;20054;-64
2021/06/24 09:10:02;;;;;;;3.00;2.67;;;;;;;;;;4993701;28;20173;-64
2021/06/24 09:12:51;;;;;;;4.45;2.40;;;;;;;;;;4993899;28;20519;-64
2021/06/24 09:15:37;;;;;;;4.38;2.20;;;;;;;;;;4993027;28;20049;-64
2021/06/24 09:18:23;;;;;;;3.40;2.03;;;;;;;;;;4993308;28;20129;-64
2021/06/24 09:21:17;;;;;;;5.07;2.00;;;;;;;;;;4993470;28;20047;-64
2021/06/24 09:24:02;;;;;;;2.53;1.60;;;;;;;;;;4994160;28;20058;-64
2021/06/24 09:26:47;;;;;;;5.30;2.15;;;;;;;;;;4978252;28;20061;-64
2021/06/24 09:29:33;;;;;;;3.88;2.17;;;;;;;;;;4993158;28;20491;-64
2021/06/24 09:32:31;;;;;;;3.92;2.20;;;;;;;;;;4993707;28;20511;-64
2021/06/24 09:35:23;;;;;;;2.83;1.75;;;;;;;;;;4993466;28;20204;-64
2021/06/24 09:38:13;;;;;;;3.10;1.52;;;;;;;;;;4992236;28;20488;-64
2021/06/24 09:40:58;;;;;;;2.17;1.80;;;;;;;;;;4992771;28;20050;-64
2021/06/24 09:43:45;;;;;;;2.30;1.45;;;;;;;;;;4993475;28;20073;-64
2021/06/24 09:46:30;;;;;;;3.75;1.60;;;;;;;;;;4992596;28;20121;-64
2021/06/24 09:49:29;;;;;;;2.67;2.22;;;;;;;;;;4993493;28;20121;-64
2021/06/24 09:52:15;;;;;;;4.68;2.03;;;;;;;;;;4992910;28;20054;-64
2021/06/24 09:55:10;;;;;;;3.13;1.58;;;;;;;;;;4978794;28;20052;-64
2021/06/24 09:57:55;;;;;;;2.83;1.95;;;;;;;;;;4993099;28;20054;-64
2021/06/24 10:00:54;;;;;;;4.53;2.35;;;;;;;;;;4977787;28;20497;-64
2021/06/24 10:03:39;;;;;;;2.72;1.50;;;;;;;;;;4993061;28;20066;-64
2021/06/24 10:06:25;;;;;;;4.65;1.85;;;;;;;;;;4993131;28;20046;-64
2021/06/24 10:09:10;;;;;;;2.47;1.50;;;;;;;;;;4992865;28;20053;-64
2021/06/24 10:11:56;;;;;;;4.63;2.00;;;;;;;;;;4984971;28;20046;-64
2021/06/24 10:14:41;;;;;;;5.07;1.70;;;;;;;;;;4991435;28;20042;-64
2021/06/24 10:17:27;;;;;;;5.18;1.80;;;;;;;;;;4992379;28;20046;-64
2021/06/24 10:20:12;;;;;;;3.00;1.58;;;;;;;;;;4978280;28;20193;-64
2021/06/24 10:23:18;;;;;;;5.85;2.10;;;;;;;;;;4992918;28;20536;-65
2021/06/24 10:26:03;;;;;;;5.18;1.80;;;;;;;;;;4990690;28;20085;-65
2021/06/24 10:28:49;;;;;;;3.22;1.70;;;;;;;;;;4977762;28;20417;-64
2021/06/24 10:31:35;;;;;;;2.83;1.60;;;;;;;;;;4977588;28;20520;-65
2021/06/24 10:34:21;;;;;;;2.72;1.58;;;;;;;;;;4992652;28;20496;-64
2021/06/24 10:37:16;;;;;;;3.35;1.65;;;;;;;;;;4992951;28;20057;-65
2021/06/24 10:40:02;;;;;;;3.97;1.80;;;;;;;;;;4992184;28;20053;-64
2021/06/24 10:42:52;;;;;;;2.60;1.50;;;;;;;;;;4977937;28;20054;-65
2021/06/24 10:45:38;;;;;;;4.68;1.23;;;;;;;;;;4991450;28;20065;-64
2021/06/24 10:48:24;;;;;;;2.90;1.80;;;;;;;;;;4991392;28;20070;-63
2021/06/24 10:51:10;;;;;;;3.25;1.70;;;;;;;;;;4994183;28;20490;-64
2021/06/24 10:53:55;;;;;;;1.73;1.63;;;;;;;;;;4996397;28;20493;-64
2021/06/24 10:56:44;;;;;;;2.95;1.60;;;;;;;;;;4974545;28;20493;-64
2021/06/24 10:59:30;;;;;;;3.03;1.70;;;;;;;;;;4995767;28;20074;-64
2021/06/24 11:02:15;;;;;;;2.92;1.90;;;;;;;;;;4981518;28;20053;-64
2021/06/24 11:05:00;;;;;;;4.13;2.15;;;;;;;;;;4996307;28;20056;-64
2021/06/24 11:07:46;;;;;;;5.50;2.97;;;;;;;;;;4980491;28;20093;-64
2021/06/24 11:10:31;;;;;;;3.70;1.88;;;;;;;;;;4981156;28;20739;-64
2021/06/24 11:13:16;;;;;;;3.13;1.90;;;;;;;;;;4981659;28;20096;-65
2021/06/24 11:16:02;;;;;;;3.53;1.75;;;;;;;;;;4995738;28;20045;-64
2021/06/24 11:18:47;;;;;;;2.53;1.50;;;;;;;;;;4976088;28;20053;-65
2021/06/24 11:21:32;;;;;;;3.78;1.73;;;;;;;;;;4976475;28;20054;-64
2021/06/24 11:24:19;;;;;;;2.17;1.80;;;;;;;;;;4976361;28;20062;-64
2021/06/24 11:27:04;;;;;;;3.25;1.80;;;;;;;;;;4981276;28;20057;-64
2021/06/24 11:29:49;;;;;;;3.63;2.45;;;;;;;;;;4981325;28;20047;-65
2021/06/24 11:32:39;;;;;;;4.80;2.13;;;;;;;;;;4995941;28;20038;-64
2021/06/24 11:35:32;;;;;;;3.10;1.67;;;;;;;;;;4995831;28;20046;-65
2021/06/24 11:38:17;;;;;;;1.60;1.30;;;;;;;;;;4994775;28;20050;-65
2021/06/24 11:41:04;;;;;;;2.65;1.77;;;;;;;;;;4994505;28;20057;-65
2021/06/24 11:44:16;;;;;;;3.63;1.70;;;;;;;;;;4981206;28;20049;-65
2021/06/24 11:47:06;;;;;;;4.25;1.90;;;;;;;;;;4995623;28;20093;-65
2021/06/24 12:05:17;;;;;;;2.50;1.95;;;;;;;;;;4994923;28;20054;-64
2021/06/24 12:08:02;;;;;;;1.70;1.38;;;;;;;;;;4974871;28;20620;-65
2021/06/24 12:10:47;;;;;;;3.63;2.38;;;;;;;;;;4975343;28;20043;-64
2021/06/24 12:13:33;;;;;;;5.18;2.78;;;;;;;;;;4975752;28;20062;-65
2021/06/24 12:16:18;;;;;;;3.17;2.03;;;;;;;;;;4975615;28;20054;-64
2021/06/24 12:19:04;;;;;;;2.03;1.63;;;;;;;;;;4975549;28;20047;-64
2021/06/24 12:21:53;;;;;;;4.38;2.25;;;;;;;;;;4988220;28;20527;-64
2021/06/24 12:24:38;;;;;;;4.57;2.10;;;;;;;;;;4994244;28;20177;-64
2021/06/24 12:27:25;;;;;;;1.70;1.60;;;;;;;;;;4994836;28;20420;-64
2021/06/24 12:30:12;;;;;;;5.45;1.85;;;;;;;;;;4994702;28;20053;-64
2021/06/24 12:32:58;;;;;;;4.32;2.53;;;;;;;;;;4994148;28;20196;-64
2021/06/24 12:35:44;;;;;;;3.88;2.22;;;;;;;;;;4994783;28;20047;-64
2021/06/24 12:38:30;;;;;;;3.90;2.25;;;;;;;;;;4994722;28;20416;-64
2021/06/24 12:41:17;;;;;;;4.90;2.50;;;;;;;;;;4978530;28;20046;-64
2021/06/24 12:44:03;;;;;;;2.30;2.00;;;;;;;;;;4993180;28;20077;-64
2021/06/24 12:46:49;;;;;;;2.50;2.35;;;;;;;;;;4994449;28;20053;-64
2021/06/24 12:49:35;;;;;;;4.10;2.53;;;;;;;;;;4994144;28;20101;-64
2021/06/24 12:52:30;;;;;;;4.90;3.03;;;;;;;;;;4993180;28;20042;-64
2021/06/24 12:55:37;;;;;;;3.13;2.30;;;;;;;;;;4994216;28;20050;-64
2021/06/24 12:58:22;;;;;;;2.22;1.85;;;;;;;;;;4994191;28;20053;-64
2021/06/24 13:01:15;;;;;;;2.42;2.10;;;;;;;;;;4993684;28;20066;-64
2021/06/24 13:04:09;;;;;;;5.55;2.70;;;;;;;;;;4992287;28;20140;-64
2021/06/24 13:06:56;;;;;;;4.60;2.03;;;;;;;;;;4994006;28;20117;-64
2021/06/24 13:09:43;;;;;;;9.13;3.38;;;;;;;;;;4993911;28;20125;-64
2021/06/24 13:12:28;;;;;;;4.40;2.50;;;;;;;;;;4993453;28;20121;-64
2021/06/24 13:15:29;;;;;;;2.75;2.50;;;;;;;;;;4976962;28;20062;-64
2021/06/24 13:18:15;;;;;;;5.00;3.30;;;;;;;;;;4994052;28;20050;-64
2021/06/24 13:21:01;;;;;;;3.70;3.30;;;;;;;;;;4993390;28;20311;-64
2021/06/24 13:23:46;;;;;;;4.13;3.13;;;;;;;;;;4982248;28;20106;-64
2021/06/24 13:26:32;;;;;;;4.95;2.30;;;;;;;;;;4974021;28;20405;-64
2021/06/24 13:29:18;;;;;;;3.10;2.40;;;;;;;;;;4974173;28;20563;-64
2021/06/24 13:32:04;;;;;;;3.55;2.78;;;;;;;;;;4974219;28;20057;-64
2021/06/24 13:34:49;;;;;;;3.38;2.40;;;;;;;;;;4989487;28;20112;-64
2021/06/24 13:37:35;;;;;;;4.45;2.70;;;;;;;;;;4993352;28;20049;-64
2021/06/24 13:40:21;;;;;;;5.25;2.55;;;;;;;;;;4993110;28;20507;-64
2021/06/24 13:43:08;;;;;;;4.72;2.65;;;;;;;;;;4993088;28;20050;-63
2021/06/24 13:45:53;;;;;;;4.65;2.58;;;;;;;;;;4991955;28;20056;-64
2021/06/24 13:48:38;;;;;;;7.13;3.08;;;;;;;;;;4993191;28;20049;-64
2021/06/24 13:51:24;;;;;;;3.53;2.97;;;;;;;;;;4993082;28;20056;-64
2021/06/24 13:54:09;;;;;;;4.18;3.70;;;;;;;;;;4992191;28;20049;-64
2021/06/24 13:56:55;;;;;;;4.22;3.60;;;;;;;;;;4991710;28;20120;-65
2021/06/24 13:59:40;;;;;;;3.13;2.83;;;;;;;;;;4978419;28;20058;-65
2021/06/24 14:02:25;;;;;;;5.03;3.20;;;;;;;;;;4991668;28;20052;-64
2021/06/24 14:05:11;;;;;;;3.60;3.10;;;;;;;;;;4993010;28;20436;-65
2021/06/24 14:07:56;;;;;;;4.85;3.47;;;;;;;;;;4993164;28;20061;-64
2021/06/24 14:10:41;;;;;;;4.28;3.25;;;;;;;;;;4978152;28;20046;-65
2021/06/24 14:13:26;;;;;;;3.83;2.95;;;;;;;;;;4991109;28;20056;-64
2021/06/24 14:16:15;;;;;;;5.57;3.42;;;;;;;;;;4993046;28;20173;-65
2021/06/24 14:19:00;;;;;;;4.95;3.55;;;;;;;;;;4992644;28;20050;-65
2021/06/24 14:21:46;;;;;;;6.57;3.55;;;;;;;;;;4991981;28;20046;-64
2021/06/24 14:24:32;;;;;;;5.43;3.38;;;;;;;;;;4991512;28;20124;-65
2021/06/24 14:27:17;;;;;;;5.15;3.20;;;;;;;;;;4992691;28;20054;-65
2021/06/24 14:30:06;;;;;;;3.47;3.15;;;;;;;;;;4992743;28;20057;-65
2021/06/24 14:32:51;;;;;;;5.00;3.55;;;;;;;;;;4992718;28;20053;-64
2021/06/24 14:35:38;;;;;;;4.70;2.95;;;;;;;;;;4991597;28;20049;-64
2021/06/24 14:38:23;;;;;;;3.50;3.17;;;;;;;;;;4992718;28;20047;-65
2021/06/24 14:41:09;;;;;;;3.78;3.20;;;;;;;;;;4992265;28;20049;-65
2021/06/24 14:43:55;;;;;;;4.25;3.38;;;;;;;;;;4992633;28;20394;-64
2021/06/24 14:46:40;;;;;;;3.75;2.83;;;;;;;;;;4992773;28;20058;-64
2021/06/24 14:49:25;;;;;;;4.55;2.60;;;;;;;;;;4991331;28;20073;-64
2021/06/24 14:52:11;;;;;;;4.45;2.80;;;;;;;;;;4991749;28;20061;-64
2021/06/24 14:54:56;;;;;;;3.33;2.70;;;;;;;;;;4992721;28;20057;-64
2021/06/24 14:57:42;;;;;;;5.15;2.28;;;;;;;;;;4992609;28;20058;-64
2021/06/24 15:00:27;;;;;;;2.78;2.50;;;;;;;;;;4991957;28;20417;-64
2021/06/24 15:03:12;;;;;;;4.05;2.45;;;;;;;;;;4992428;28;20049;-65
2021/06/24 15:05:58;;;;;;;5.88;2.58;;;;;;;;;;4992291;28;20101;-65
2021/06/24 15:08:43;;;;;;;4.40;2.75;;;;;;;;;;4992531;28;20058;-65
2021/06/24 15:11:28;;;;;;;2.97;2.28;;;;;;;;;;4991969;28;20424;-65
2021/06/24 15:14:14;;;;;;;3.85;2.63;;;;;;;;;;4992408;28;20050;-65
2021/06/24 15:16:59;;;;;;;3.03;2.22;;;;;;;;;;4992272;28;20046;-65
2021/06/24 15:19:44;;;;;;;2.85;1.95;;;;;;;;;;4990487;28;20046;-65
2021/06/24 15:22:30;;;;;;;4.25;2.55;;;;;;;;;;4992634;28;20057;-64
2021/06/24 15:25:16;;;;;;;4.18;2.55;;;;;;;;;;4992319;28;20417;-64
2021/06/24 15:28:01;;;;;;;4.20;2.90;;;;;;;;;;4991948;28;20120;-65
2021/06/24 15:30:47;;;;;;;4.50;2.55;;;;;;;;;;4991930;28;20042;-64
2021/06/24 15:33:32;;;;;;;3.10;2.50;;;;;;;;;;4997355;28;20045;-64
2021/06/24 15:36:17;;;;;;;4.90;2.65;;;;;;;;;;5010294;28;20057;-64
2021/06/24 15:39:03;;;;;;;3.28;2.90;;;;;;;;;;5015069;28;20061;-64
2021/06/24 15:41:48;;;;;;;4.90;2.30;;;;;;;;;;5015202;28;20057;-64
2021/06/24 15:44:34;;;;;;;3.35;2.78;;;;;;;;;;5015251;28;20049;-64
2021/06/24 15:47:20;;;;;;;3.22;2.30;;;;;;;;;;5015254;28;20049;-64
2021/06/24 15:50:05;;;;;;;4.68;3.28;;;;;;;;;;4995339;28;20047;-64
2021/06/24 15:52:50;;;;;;;3.20;2.33;;;;;;;;;;4995483;28;20050;-64
2021/06/24 15:55:39;;;;;;;3.47;2.63;;;;;;;;;;4995523;28;20043;-64
2021/06/24 15:58:25;;;;;;;3.15;2.42;;;;;;;;;;4995295;28;20051;-64
2021/06/24 16:01:10;;;;;;;3.03;1.95;;;;;;;;;;5042495;23;20081;-64
2021/06/24 16:03:56;;;;;;;13.18;3.70;;;;;;;;;;5027074;28;20053;-64
2021/06/24 16:06:41;;;;;;;2.88;2.35;;;;;;;;;;5034687;28;20072;-64
2021/06/24 16:09:27;;;;;;;2.97;2.25;;;;;;;;;;5034268;28;20057;-64
2021/06/24 16:12:12;;;;;;;4.07;2.47;;;;;;;;;;5034584;28;20049;-64
2021/06/24 16:14:57;;;;;;;3.10;2.40;;;;;;;;;;5034497;28;20462;-64
2021/06/24 16:17:43;;;;;;;3.35;2.40;;;;;;;;;;5032546;28;20403;-64
2021/06/24 16:20:28;;;;;;;5.03;2.55;;;;;;;;;;5032792;28;20048;-64
2021/06/24 16:23:13;;;;;;;3.53;2.70;;;;;;;;;;5034688;28;20045;-64
2021/06/24 16:25:59;;;;;;;3.65;2.88;;;;;;;;;;5018705;28;20049;-64
2021/06/24 16:28:44;;;;;;;2.58;2.38;;;;;;;;;;5014559;28;20138;-64
2021/06/24 16:31:29;;;;;;;4.55;3.53;;;;;;;;;;5014109;28;20046;-64
2021/06/24 16:34:15;;;;;;;5.45;3.50;;;;;;;;;;5014275;28;20052;-64
2021/06/24 16:37:00;;;;;;;3.50;2.70;;;;;;;;;;5014109;28;20081;-64
2021/06/24 16:39:45;;;;;;;2.95;2.67;;;;;;;;;;4998503;28;20044;-64
2021/06/24 16:42:31;;;;;;;3.83;3.28;;;;;;;;;;5014121;28;20052;-65
2021/06/24 16:45:17;;;;;;;3.88;2.90;;;;;;;;;;5013987;28;20053;-64